sensor_id;sensor_type;location;lat;lon;timestamp;P1;durP1;ratioP1;P2;durP2;ratioP2
13687;SDS011;6916;51.504;7.416;2022-09-09T00:04:13;2.27;;;0.40;;
13687;SDS011;6916;51.504;7.416;2022-09-09T00:15:19;1.65;;;0.52;;
13687;SDS011;6916;51.504;7.416;2022-09-09T00:31:54;3.28;;;0.35;;
13687;SDS011;6916;51.504;7.416;2022-09-09T00:37:19;4.07;;;0.50;;
13687;SDS011;6916;51.504;7.416;2022-09-09T00:42:43;0.85;;;0.40;;
13687;SDS011;6916;51.504;7.416;2022-09-09T00:48:08;1.80;;;0.50;;
13687;SDS011;6916;51.504;7.416;2022-09-09T00:53:39;1.05;;;0.25;;
13687;SDS011;6916;51.504;7.416;2022-09-09T00:59:26;1.00;;;0.53;;
13687;SDS011;6916;51.504;7.416;2022-09-09T01:04:53;0.67;;;0.47;;
13687;SDS011;6916;51.504;7.416;2022-09-09T01:10:50;1.47;;;0.40;;
13687;SDS011;6916;51.504;7.416;2022-09-09T01:16:15;1.23;;;0.60;;
13687;SDS011;6916;51.504;7.416;2022-09-09T01:21:45;1.73;;;0.50;;
13687;SDS011;6916;51.504;7.416;2022-09-09T01:27:32;1.35;;;0.60;;
13687;SDS011;6916;51.504;7.416;2022-09-09T01:32:56;4.55;;;0.85;;
13687;SDS011;6916;51.504;7.416;2022-09-09T01:38:21;6.20;;;1.17;;
13687;SDS011;6916;51.504;7.416;2022-09-09T01:43:44;4.60;;;1.00;;
13687;SDS011;6916;51.504;7.416;2022-09-09T01:49:08;5.22;;;0.93;;
13687;SDS011;6916;51.504;7.416;2022-09-09T01:54:32;2.43;;;1.00;;
13687;SDS011;6916;51.504;7.416;2022-09-09T02:00:04;2.53;;;0.80;;
13687;SDS011;6916;51.504;7.416;2022-09-09T02:11:25;2.23;;;0.50;;
13687;SDS011;6916;51.504;7.416;2022-09-09T02:16:58;2.10;;;0.90;;
13687;SDS011;6916;51.504;7.416;2022-09-09T02:22:32;3.03;;;0.90;;
13687;SDS011;6916;51.504;7.416;2022-09-09T02:27:57;3.15;;;0.80;;
13687;SDS011;6916;51.504;7.416;2022-09-09T02:33:24;1.83;;;0.60;;
13687;SDS011;6916;51.504;7.416;2022-09-09T02:38:49;2.15;;;0.60;;
13687;SDS011;6916;51.504;7.416;2022-09-09T02:44:16;9.13;;;1.03;;
13687;SDS011;6916;51.504;7.416;2022-09-09T02:49:52;2.93;;;0.70;;
13687;SDS011;6916;51.504;7.416;2022-09-09T03:00:53;2.70;;;0.73;;
13687;SDS011;6916;51.504;7.416;2022-09-09T03:06:16;2.90;;;0.57;;
13687;SDS011;6916;51.504;7.416;2022-09-09T03:11:51;3.90;;;0.90;;
13687;SDS011;6916;51.504;7.416;2022-09-09T03:17:14;1.57;;;0.73;;
13687;SDS011;6916;51.504;7.416;2022-09-09T03:22:37;2.20;;;0.70;;
13687;SDS011;6916;51.504;7.416;2022-09-09T03:27:59;1.63;;;0.60;;
13687;SDS011;6916;51.504;7.416;2022-09-09T03:33:23;3.20;;;0.93;;
13687;SDS011;6916;51.504;7.416;2022-09-09T03:38:48;3.17;;;0.70;;
13687;SDS011;6916;51.504;7.416;2022-09-09T03:44:11;3.47;;;0.80;;
13687;SDS011;6916;51.504;7.416;2022-09-09T03:49:33;4.13;;;0.50;;
13687;SDS011;6916;51.504;7.416;2022-09-09T03:54:56;2.03;;;0.50;;
13687;SDS011;6916;51.504;7.416;2022-09-09T04:00:18;1.60;;;0.60;;
13687;SDS011;6916;51.504;7.416;2022-09-09T04:05:40;2.47;;;1.10;;
13687;SDS011;6916;51.504;7.416;2022-09-09T04:11:04;5.27;;;0.83;;
13687;SDS011;6916;51.504;7.416;2022-09-09T04:16:31;4.47;;;0.80;;
13687;SDS011;6916;51.504;7.416;2022-09-09T04:21:54;4.67;;;1.37;;
13687;SDS011;6916;51.504;7.416;2022-09-09T04:27:16;6.00;;;1.20;;
13687;SDS011;6916;51.504;7.416;2022-09-09T04:32:40;2.17;;;0.97;;
13687;SDS011;6916;51.504;7.416;2022-09-09T04:38:02;5.20;;;1.10;;
13687;SDS011;6916;51.504;7.416;2022-09-09T04:43:25;2.73;;;1.13;;
13687;SDS011;6916;51.504;7.416;2022-09-09T04:48:49;4.33;;;1.17;;
13687;SDS011;6916;51.504;7.416;2022-09-09T04:54:11;1.48;;;0.82;;
13687;SDS011;6916;51.504;7.416;2022-09-09T04:59:34;5.28;;;1.23;;
13687;SDS011;6916;51.504;7.416;2022-09-09T05:04:56;20.83;;;3.05;;
13687;SDS011;6916;51.504;7.416;2022-09-09T05:10:18;30.42;;;5.07;;
13687;SDS011;6916;51.504;7.416;2022-09-09T05:15:41;6.82;;;1.85;;
13687;SDS011;6916;51.504;7.416;2022-09-09T05:21:05;6.40;;;1.52;;
13687;SDS011;6916;51.504;7.416;2022-09-09T05:26:28;4.07;;;1.00;;
13687;SDS011;6916;51.504;7.416;2022-09-09T05:31:51;5.40;;;1.10;;
13687;SDS011;6916;51.504;7.416;2022-09-09T05:37:14;4.57;;;0.83;;
13687;SDS011;6916;51.504;7.416;2022-09-09T05:42:37;5.40;;;1.00;;
13687;SDS011;6916;51.504;7.416;2022-09-09T05:48:01;6.13;;;1.10;;
13687;SDS011;6916;51.504;7.416;2022-09-09T05:53:23;5.30;;;1.10;;
13687;SDS011;6916;51.504;7.416;2022-09-09T05:58:47;7.00;;;2.00;;
13687;SDS011;6916;51.504;7.416;2022-09-09T06:04:12;4.73;;;1.33;;
13687;SDS011;6916;51.504;7.416;2022-09-09T06:09:35;12.07;;;5.07;;
13687;SDS011;6916;51.504;7.416;2022-09-09T06:14:58;21.45;;;10.15;;
13687;SDS011;6916;51.504;7.416;2022-09-09T06:20:21;13.98;;;6.70;;
13687;SDS011;6916;51.504;7.416;2022-09-09T06:25:43;14.60;;;6.67;;
13687;SDS011;6916;51.504;7.416;2022-09-09T06:31:07;10.43;;;3.47;;
13687;SDS011;6916;51.504;7.416;2022-09-09T06:36:32;6.00;;;2.30;;
13687;SDS011;6916;51.504;7.416;2022-09-09T06:41:56;5.43;;;1.33;;
13687;SDS011;6916;51.504;7.416;2022-09-09T06:47:37;6.90;;;1.30;;
13687;SDS011;6916;51.504;7.416;2022-09-09T06:53:00;5.45;;;1.38;;
13687;SDS011;6916;51.504;7.416;2022-09-09T06:58:24;5.23;;;1.23;;
13687;SDS011;6916;51.504;7.416;2022-09-09T07:03:53;3.47;;;1.23;;
13687;SDS011;6916;51.504;7.416;2022-09-09T07:09:18;5.65;;;1.15;;
13687;SDS011;6916;51.504;7.416;2022-09-09T07:14:40;1.95;;;0.98;;
13687;SDS011;6916;51.504;7.416;2022-09-09T07:20:03;3.72;;;0.75;;
13687;SDS011;6916;51.504;7.416;2022-09-09T07:25:27;4.13;;;0.85;;
13687;SDS011;6916;51.504;7.416;2022-09-09T07:36:18;1.85;;;0.70;;
13687;SDS011;6916;51.504;7.416;2022-09-09T07:41:47;3.67;;;0.73;;
13687;SDS011;6916;51.504;7.416;2022-09-09T07:47:11;2.27;;;0.63;;
13687;SDS011;6916;51.504;7.416;2022-09-09T07:52:33;5.28;;;0.70;;
13687;SDS011;6916;51.504;7.416;2022-09-09T07:57:55;1.55;;;0.43;;
13687;SDS011;6916;51.504;7.416;2022-09-09T08:03:18;1.90;;;0.73;;
13687;SDS011;6916;51.504;7.416;2022-09-09T08:08:40;3.45;;;0.75;;
13687;SDS011;6916;51.504;7.416;2022-09-09T08:14:07;4.45;;;0.52;;
13687;SDS011;6916;51.504;7.416;2022-09-09T08:19:31;4.93;;;0.60;;
13687;SDS011;6916;51.504;7.416;2022-09-09T08:25:01;5.15;;;0.95;;
13687;SDS011;6916;51.504;7.416;2022-09-09T08:30:24;2.80;;;0.77;;
13687;SDS011;6916;51.504;7.416;2022-09-09T08:35:50;6.38;;;1.10;;
13687;SDS011;6916;51.504;7.416;2022-09-09T08:47:10;3.92;;;0.73;;
13687;SDS011;6916;51.504;7.416;2022-09-09T08:52:55;4.00;;;0.60;;
13687;SDS011;6916;51.504;7.416;2022-09-09T08:58:32;6.28;;;1.20;;
13687;SDS011;6916;51.504;7.416;2022-09-09T09:15:31;4.20;;;0.77;;
13687;SDS011;6916;51.504;7.416;2022-09-09T09:20:59;5.68;;;0.85;;
13687;SDS011;6916;51.504;7.416;2022-09-09T09:26:49;4.63;;;1.23;;
13687;SDS011;6916;51.504;7.416;2022-09-09T09:32:13;5.95;;;0.80;;
13687;SDS011;6916;51.504;7.416;2022-09-09T09:37:40;4.40;;;1.30;;
13687;SDS011;6916;51.504;7.416;2022-09-09T09:43:04;2.30;;;0.77;;
13687;SDS011;6916;51.504;7.416;2022-09-09T09:48:32;4.90;;;0.88;;
13687;SDS011;6916;51.504;7.416;2022-09-09T09:54:01;4.57;;;0.82;;
13687;SDS011;6916;51.504;7.416;2022-09-09T09:59:34;5.20;;;0.77;;
13687;SDS011;6916;51.504;7.416;2022-09-09T10:05:01;4.25;;;1.42;;
13687;SDS011;6916;51.504;7.416;2022-09-09T10:10:28;6.95;;;0.93;;
13687;SDS011;6916;51.504;7.416;2022-09-09T10:22:02;4.95;;;0.95;;
13687;SDS011;6916;51.504;7.416;2022-09-09T10:33:09;5.68;;;0.80;;
13687;SDS011;6916;51.504;7.416;2022-09-09T10:38:42;2.97;;;0.80;;
13687;SDS011;6916;51.504;7.416;2022-09-09T10:44:27;4.50;;;0.60;;
13687;SDS011;6916;51.504;7.416;2022-09-09T10:55:45;2.65;;;0.70;;
13687;SDS011;6916;51.504;7.416;2022-09-09T11:01:29;3.67;;;0.55;;
13687;SDS011;6916;51.504;7.416;2022-09-09T11:06:55;3.95;;;0.40;;
13687;SDS011;6916;51.504;7.416;2022-09-09T11:12:18;2.03;;;0.30;;
13687;SDS011;6916;51.504;7.416;2022-09-09T11:17:46;1.17;;;0.30;;
13687;SDS011;6916;51.504;7.416;2022-09-09T11:23:19;2.28;;;0.30;;
13687;SDS011;6916;51.504;7.416;2022-09-09T11:28:56;0.85;;;0.25;;
13687;SDS011;6916;51.504;7.416;2022-09-09T11:34:44;1.40;;;0.50;;
13687;SDS011;6916;51.504;7.416;2022-09-09T11:40:24;4.65;;;0.80;;
13687;SDS011;6916;51.504;7.416;2022-09-09T11:45:53;1.63;;;0.30;;
13687;SDS011;6916;51.504;7.416;2022-09-09T12:02:13;2.35;;;0.30;;
13687;SDS011;6916;51.504;7.416;2022-09-09T12:07:41;1.63;;;0.40;;
13687;SDS011;6916;51.504;7.416;2022-09-09T12:13:20;2.90;;;0.40;;
13687;SDS011;6916;51.504;7.416;2022-09-09T12:18:44;2.17;;;0.35;;
13687;SDS011;6916;51.504;7.416;2022-09-09T12:23:55;3.67;;;0.60;;
13687;SDS011;6916;51.504;7.416;2022-09-09T12:29:31;1.90;;;0.45;;
13687;SDS011;6916;51.504;7.416;2022-09-09T12:40:42;6.43;;;0.55;;
13687;SDS011;6916;51.504;7.416;2022-09-09T12:51:50;3.65;;;1.02;;
13687;SDS011;6916;51.504;7.416;2022-09-09T12:57:12;2.75;;;0.90;;
13687;SDS011;6916;51.504;7.416;2022-09-09T13:02:35;6.00;;;0.95;;
13687;SDS011;6916;51.504;7.416;2022-09-09T13:08:01;2.60;;;0.60;;
13687;SDS011;6916;51.504;7.416;2022-09-09T13:13:41;3.17;;;0.70;;
13687;SDS011;6916;51.504;7.416;2022-09-09T13:19:07;3.13;;;0.85;;
13687;SDS011;6916;51.504;7.416;2022-09-09T13:24:32;2.47;;;0.70;;
13687;SDS011;6916;51.504;7.416;2022-09-09T13:29:56;2.30;;;0.73;;
13687;SDS011;6916;51.504;7.416;2022-09-09T13:35:23;3.17;;;0.90;;
13687;SDS011;6916;51.504;7.416;2022-09-09T13:40:55;7.07;;;1.15;;
13687;SDS011;6916;51.504;7.416;2022-09-09T13:46:31;2.33;;;0.95;;
13687;SDS011;6916;51.504;7.416;2022-09-09T13:52:08;3.13;;;0.68;;
13687;SDS011;6916;51.504;7.416;2022-09-09T13:57:33;4.32;;;0.50;;
13687;SDS011;6916;51.504;7.416;2022-09-09T14:02:55;1.15;;;0.30;;
13687;SDS011;6916;51.504;7.416;2022-09-09T14:08:22;3.73;;;0.70;;
13687;SDS011;6916;51.504;7.416;2022-09-09T14:13:47;2.00;;;0.50;;
13687;SDS011;6916;51.504;7.416;2022-09-09T14:19:12;2.10;;;1.07;;
13687;SDS011;6916;51.504;7.416;2022-09-09T14:24:34;3.33;;;0.80;;
13687;SDS011;6916;51.504;7.416;2022-09-09T14:29:56;2.92;;;0.73;;
13687;SDS011;6916;51.504;7.416;2022-09-09T14:35:19;1.85;;;0.45;;
13687;SDS011;6916;51.504;7.416;2022-09-09T14:40:44;2.55;;;0.50;;
13687;SDS011;6916;51.504;7.416;2022-09-09T14:46:07;2.85;;;0.70;;
13687;SDS011;6916;51.504;7.416;2022-09-09T14:51:30;3.03;;;0.85;;
13687;SDS011;6916;51.504;7.416;2022-09-09T14:56:52;1.38;;;0.57;;
13687;SDS011;6916;51.504;7.416;2022-09-09T15:02:14;2.47;;;0.60;;
13687;SDS011;6916;51.504;7.416;2022-09-09T15:07:36;3.22;;;0.70;;
13687;SDS011;6916;51.504;7.416;2022-09-09T15:12:59;2.72;;;0.70;;
13687;SDS011;6916;51.504;7.416;2022-09-09T15:18:22;3.58;;;1.30;;
13687;SDS011;6916;51.504;7.416;2022-09-09T15:23:47;3.10;;;1.00;;
13687;SDS011;6916;51.504;7.416;2022-09-09T15:29:11;6.00;;;1.10;;
13687;SDS011;6916;51.504;7.416;2022-09-09T16:23:26;2.42;;;0.70;;
13687;SDS011;6916;51.504;7.416;2022-09-09T16:28:49;2.80;;;0.40;;
13687;SDS011;6916;51.504;7.416;2022-09-09T16:34:11;2.35;;;0.63;;
13687;SDS011;6916;51.504;7.416;2022-09-09T16:39:33;2.75;;;0.60;;
13687;SDS011;6916;51.504;7.416;2022-09-09T16:44:55;0.93;;;0.32;;
13687;SDS011;6916;51.504;7.416;2022-09-09T16:50:18;1.73;;;0.60;;
13687;SDS011;6916;51.504;7.416;2022-09-09T16:55:40;1.27;;;0.30;;
13687;SDS011;6916;51.504;7.416;2022-09-09T17:01:03;0.83;;;0.40;;
13687;SDS011;6916;51.504;7.416;2022-09-09T17:06:26;1.38;;;0.50;;
13687;SDS011;6916;51.504;7.416;2022-09-09T17:11:49;0.97;;;0.43;;
13687;SDS011;6916;51.504;7.416;2022-09-09T17:17:14;2.30;;;0.93;;
13687;SDS011;6916;51.504;7.416;2022-09-09T17:22:38;2.33;;;0.50;;
13687;SDS011;6916;51.504;7.416;2022-09-09T17:28:01;2.78;;;0.82;;
13687;SDS011;6916;51.504;7.416;2022-09-09T17:33:28;1.17;;;0.70;;
13687;SDS011;6916;51.504;7.416;2022-09-09T17:38:54;3.00;;;0.80;;
13687;SDS011;6916;51.504;7.416;2022-09-09T17:44:17;1.83;;;0.60;;
13687;SDS011;6916;51.504;7.416;2022-09-09T17:49:41;2.13;;;0.50;;
13687;SDS011;6916;51.504;7.416;2022-09-09T17:55:04;1.87;;;0.60;;
13687;SDS011;6916;51.504;7.416;2022-09-09T18:00:27;1.97;;;0.87;;
13687;SDS011;6916;51.504;7.416;2022-09-09T18:05:52;2.80;;;1.17;;
13687;SDS011;6916;51.504;7.416;2022-09-09T18:11:14;2.70;;;1.10;;
13687;SDS011;6916;51.504;7.416;2022-09-09T18:16:37;1.80;;;0.70;;
13687;SDS011;6916;51.504;7.416;2022-09-09T18:22:02;4.90;;;1.20;;
13687;SDS011;6916;51.504;7.416;2022-09-09T18:27:25;5.70;;;1.23;;
13687;SDS011;6916;51.504;7.416;2022-09-09T18:32:49;2.80;;;1.17;;
13687;SDS011;6916;51.504;7.416;2022-09-09T18:38:13;3.73;;;0.93;;
13687;SDS011;6916;51.504;7.416;2022-09-09T18:43:38;3.00;;;0.80;;
13687;SDS011;6916;51.504;7.416;2022-09-09T18:49:00;3.10;;;0.80;;
13687;SDS011;6916;51.504;7.416;2022-09-09T18:54:24;2.53;;;1.03;;
13687;SDS011;6916;51.504;7.416;2022-09-09T18:59:54;1.95;;;0.63;;
13687;SDS011;6916;51.504;7.416;2022-09-09T19:05:35;1.53;;;0.63;;
13687;SDS011;6916;51.504;7.416;2022-09-09T19:11:00;1.80;;;0.70;;
13687;SDS011;6916;51.504;7.416;2022-09-09T19:16:23;3.13;;;0.50;;
13687;SDS011;6916;51.504;7.416;2022-09-09T19:21:48;2.50;;;0.87;;
13687;SDS011;6916;51.504;7.416;2022-09-09T19:27:10;3.50;;;0.90;;
13687;SDS011;6916;51.504;7.416;2022-09-09T19:32:33;0.77;;;0.53;;
13687;SDS011;6916;51.504;7.416;2022-09-09T19:38:00;0.83;;;0.47;;
13687;SDS011;6916;51.504;7.416;2022-09-09T19:43:23;1.40;;;0.63;;
13687;SDS011;6916;51.504;7.416;2022-09-09T19:48:45;3.20;;;0.63;;
13687;SDS011;6916;51.504;7.416;2022-09-09T19:54:08;1.13;;;0.50;;
13687;SDS011;6916;51.504;7.416;2022-09-09T19:59:32;1.90;;;0.60;;
13687;SDS011;6916;51.504;7.416;2022-09-09T20:04:54;2.40;;;0.60;;
13687;SDS011;6916;51.504;7.416;2022-09-09T20:10:16;2.70;;;0.90;;
13687;SDS011;6916;51.504;7.416;2022-09-09T20:15:38;1.23;;;0.50;;
13687;SDS011;6916;51.504;7.416;2022-09-09T20:21:12;1.53;;;0.60;;
13687;SDS011;6916;51.504;7.416;2022-09-09T20:26:38;3.97;;;0.70;;
13687;SDS011;6916;51.504;7.416;2022-09-09T20:32:00;2.40;;;0.90;;
13687;SDS011;6916;51.504;7.416;2022-09-09T20:37:22;3.43;;;0.97;;
13687;SDS011;6916;51.504;7.416;2022-09-09T20:42:45;3.17;;;0.90;;
13687;SDS011;6916;51.504;7.416;2022-09-09T20:48:07;2.60;;;1.13;;
13687;SDS011;6916;51.504;7.416;2022-09-09T20:53:29;1.97;;;0.93;;
13687;SDS011;6916;51.504;7.416;2022-09-09T20:58:52;3.97;;;1.17;;
13687;SDS011;6916;51.504;7.416;2022-09-09T21:04:15;4.97;;;1.10;;
13687;SDS011;6916;51.504;7.416;2022-09-09T21:09:38;2.27;;;0.90;;
13687;SDS011;6916;51.504;7.416;2022-09-09T21:15:01;3.93;;;1.20;;
13687;SDS011;6916;51.504;7.416;2022-09-09T21:20:24;1.23;;;0.83;;
13687;SDS011;6916;51.504;7.416;2022-09-09T21:25:46;1.90;;;0.70;;
13687;SDS011;6916;51.504;7.416;2022-09-09T21:31:16;4.13;;;1.23;;
13687;SDS011;6916;51.504;7.416;2022-09-09T21:36:39;3.33;;;1.00;;
13687;SDS011;6916;51.504;7.416;2022-09-09T21:42:01;3.77;;;1.47;;
13687;SDS011;6916;51.504;7.416;2022-09-09T21:47:23;2.27;;;1.07;;
13687;SDS011;6916;51.504;7.416;2022-09-09T21:52:45;3.83;;;1.30;;
13687;SDS011;6916;51.504;7.416;2022-09-09T21:58:08;3.17;;;1.20;;
13687;SDS011;6916;51.504;7.416;2022-09-09T22:03:34;3.40;;;1.40;;
13687;SDS011;6916;51.504;7.416;2022-09-09T22:08:58;1.30;;;1.20;;
13687;SDS011;6916;51.504;7.416;2022-09-09T22:14:20;2.37;;;1.30;;
13687;SDS011;6916;51.504;7.416;2022-09-09T22:19:43;5.60;;;1.80;;
13687;SDS011;6916;51.504;7.416;2022-09-09T22:25:05;3.90;;;1.33;;
13687;SDS011;6916;51.504;7.416;2022-09-09T22:30:28;3.03;;;1.30;;
13687;SDS011;6916;51.504;7.416;2022-09-09T22:35:50;4.27;;;1.37;;
13687;SDS011;6916;51.504;7.416;2022-09-09T22:41:12;2.30;;;1.50;;
13687;SDS011;6916;51.504;7.416;2022-09-09T22:46:35;4.80;;;1.40;;
13687;SDS011;6916;51.504;7.416;2022-09-09T22:51:57;5.33;;;1.60;;
13687;SDS011;6916;51.504;7.416;2022-09-09T22:57:20;5.23;;;1.67;;
13687;SDS011;6916;51.504;7.416;2022-09-09T23:02:42;3.87;;;1.63;;
13687;SDS011;6916;51.504;7.416;2022-09-09T23:08:04;3.33;;;1.73;;
13687;SDS011;6916;51.504;7.416;2022-09-09T23:13:26;5.07;;;1.70;;
13687;SDS011;6916;51.504;7.416;2022-09-09T23:18:52;5.67;;;1.60;;
13687;SDS011;6916;51.504;7.416;2022-09-09T23:24:16;4.47;;;1.53;;
13687;SDS011;6916;51.504;7.416;2022-09-09T23:29:39;6.33;;;1.60;;
13687;SDS011;6916;51.504;7.416;2022-09-09T23:35:01;2.73;;;1.30;;
13687;SDS011;6916;51.504;7.416;2022-09-09T23:40:23;5.17;;;1.90;;
13687;SDS011;6916;51.504;7.416;2022-09-09T23:45:46;5.90;;;1.23;;
13687;SDS011;6916;51.504;7.416;2022-09-09T23:51:09;3.13;;;1.25;;
13687;SDS011;6916;51.504;7.416;2022-09-09T23:56:39;5.53;;;1.20;;
